createdAt,value
2016-03-13T00:00:10.804Z,0
2016-03-13T00:00:53.058Z,0
2016-03-13T00:02:17.283Z,0
2016-03-13T00:03:01.189Z,0
2016-03-13T00:04:01.222Z,0
2016-03-13T00:05:14.009Z,0
2016-03-13T00:06:01.227Z,0
2016-03-13T00:07:58.218Z,0
2016-03-13T00:08:11.439Z,0
2016-03-13T00:09:24.146Z,0
2016-03-13T00:10:17.695Z,0
2016-03-13T00:11:17.698Z,0
2016-03-13T00:12:24.169Z,0
2016-03-13T00:13:30.672Z,0
2016-03-13T00:14:14.549Z,0
2016-03-13T00:15:14.676Z,0
2016-03-13T00:16:14.601Z,0
2016-03-13T00:17:20.932Z,0
2016-03-13T00:18:20.967Z,0
2016-03-13T00:19:16.032Z,0
2016-03-13T00:20:27.425Z,0
2016-03-13T00:21:21.162Z,0
2016-03-13T00:22:16.086Z,0
2016-03-13T00:23:16.089Z,0
2016-03-13T00:24:17.826Z,0
2016-03-13T00:25:14.719Z,0
2016-03-13T00:26:21.034Z,0
2016-03-13T00:27:27.475Z,0
2016-03-13T00:28:14.758Z,0
2016-03-13T00:29:27.496Z,0
2016-03-13T00:30:21.030Z,0
2016-03-13T00:31:40.470Z,0
2016-03-13T00:32:24.426Z,0
2016-03-13T00:33:50.053Z,0
2016-03-13T00:34:59.494Z,0
2016-03-13T00:35:33.965Z,0
2016-03-13T00:36:59.874Z,0
2016-03-13T00:37:33.970Z,0
2016-03-13T00:38:34.104Z,0
2016-03-13T00:39:34.606Z,0
2016-03-13T00:40:34.046Z,0
2016-03-13T00:41:46.940Z,0
2016-03-13T00:42:46.785Z,0
2016-03-13T00:44:50.276Z,0
2016-03-13T00:45:02.870Z,0
2016-03-13T00:46:02.887Z,0
2016-03-13T00:47:03.548Z,0
2016-03-13T00:48:04.318Z,0
2016-03-13T00:49:15.648Z,0
2016-03-13T00:50:02.945Z,0
2016-03-13T00:51:03.732Z,0
2016-03-13T00:52:03.576Z,0
2016-03-13T00:53:15.690Z,0
2016-03-13T00:54:03.003Z,0
2016-03-13T00:55:03.130Z,0
2016-03-13T00:56:15.777Z,0
2016-03-13T00:57:03.105Z,0
2016-03-13T00:58:22.250Z,0
2016-03-13T00:59:03.047Z,0
2016-03-13T01:00:03.113Z,0
2016-03-13T01:01:03.100Z,0
2016-03-13T01:02:03.744Z,0
2016-03-13T01:03:15.827Z,0
2016-03-13T01:04:03.124Z,0
2016-03-13T01:05:22.426Z,0
2016-03-13T01:06:03.332Z,0
2016-03-13T01:07:03.162Z,0
2016-03-13T01:08:04.057Z,0
2016-03-13T01:09:03.184Z,0
2016-03-13T01:10:22.486Z,0
2016-03-13T01:11:15.958Z,0
2016-03-13T01:12:28.960Z,0
2016-03-13T01:13:22.478Z,0
2016-03-13T01:14:34.559Z,0
2016-03-13T01:16:12.955Z,0
2016-03-13T01:18:22.758Z,0
2016-03-13T01:19:48.229Z,0
2016-03-13T01:20:22.670Z,0
2016-03-13T01:21:53.875Z,0
2016-03-13T01:22:22.612Z,0
2016-03-13T01:23:22.614Z,0
2016-03-13T01:24:28.945Z,0
2016-03-13T01:25:22.635Z,0
2016-03-13T01:26:35.404Z,0
2016-03-13T01:27:22.641Z,0
2016-03-13T01:28:22.613Z,0
2016-03-13T01:29:22.803Z,0
2016-03-13T01:30:22.930Z,0
2016-03-13T01:31:22.933Z,0
2016-03-13T01:32:29.233Z,0
2016-03-13T01:33:29.016Z,0
2016-03-13T01:34:22.363Z,0
2016-03-13T01:35:35.693Z,0
2016-03-13T01:36:22.790Z,0
2016-03-13T01:37:42.294Z,0
2016-03-13T01:38:52.046Z,0
2016-03-13T01:39:26.174Z,0
2016-03-13T01:40:26.254Z,0
2016-03-13T01:41:26.804Z,0
2016-03-13T01:42:38.978Z,0
2016-03-13T01:43:38.981Z,0
2016-03-13T01:44:51.906Z,0
2016-03-13T01:45:26.268Z,0
2016-03-13T01:46:57.615Z,0
2016-03-13T01:47:36.117Z,0
2016-03-13T01:48:36.026Z,0
2016-03-13T01:49:35.873Z,0
2016-03-13T01:50:37.312Z,0
2016-03-13T01:51:36.331Z,0
2016-03-13T01:52:35.927Z,0
2016-03-13T01:53:37.383Z,0
2016-03-13T01:54:42.198Z,0
2016-03-13T01:55:48.794Z,0
2016-03-13T01:56:48.985Z,0
2016-03-13T01:57:48.831Z,0
2016-03-13T01:58:36.037Z,0
2016-03-13T01:59:36.242Z,0
2016-03-13T02:00:36.042Z,0
2016-03-13T02:01:36.092Z,0
2016-03-13T02:02:42.375Z,0
2016-03-13T02:03:48.832Z,0
2016-03-13T02:04:36.100Z,0
2016-03-13T02:06:01.806Z,0
2016-03-13T02:06:36.777Z,0
2016-03-13T02:07:36.139Z,0
2016-03-13T02:08:36.361Z,0
2016-03-13T02:09:48.894Z,0
2016-03-13T02:10:36.272Z,0
2016-03-13T02:12:01.900Z,0
2016-03-13T02:12:36.262Z,0
2016-03-13T02:13:36.249Z,0
2016-03-13T02:14:49.017Z,0
2016-03-13T02:15:36.286Z,0
2016-03-13T02:16:36.273Z,0
2016-03-13T02:17:36.541Z,0
2016-03-13T02:18:49.044Z,0
2016-03-13T02:19:36.312Z,0
2016-03-13T02:20:36.315Z,0
2016-03-13T02:21:36.427Z,0
2016-03-13T02:22:49.086Z,0
2016-03-13T02:23:37.042Z,0
2016-03-13T02:24:36.388Z,0
2016-03-13T02:25:36.531Z,0
2016-03-13T02:26:36.425Z,0
2016-03-13T02:27:36.553Z,0
2016-03-13T02:28:49.181Z,0
2016-03-13T02:29:42.714Z,0
2016-03-13T02:32:05.547Z,0
2016-03-13T02:32:39.878Z,0
2016-03-13T02:33:39.833Z,0
2016-03-13T02:34:39.853Z,0
2016-03-13T02:35:39.840Z,0
2016-03-13T02:36:39.904Z,0
2016-03-13T02:37:39.877Z,0
2016-03-13T02:38:39.911Z,0
2016-03-13T02:39:39.944Z,0
2016-03-13T02:40:39.947Z,0
2016-03-13T02:41:40.074Z,0
2016-03-13T02:42:39.968Z,0
2016-03-13T02:43:40.065Z,0
2016-03-13T02:44:39.989Z,0
2016-03-13T02:45:40.038Z,0
2016-03-13T02:46:39.994Z,0
2016-03-13T02:47:40.278Z,0
2016-03-13T02:48:52.765Z,0
2016-03-13T02:49:52.815Z,0
2016-03-13T02:50:59.270Z,0
2016-03-13T02:51:59.320Z,0
2016-03-13T02:52:40.089Z,0
2016-03-13T02:54:42.719Z,0
2016-03-13T02:54:55.531Z,0
2016-03-13T02:55:55.597Z,0
2016-03-13T02:56:55.334Z,0
2016-03-13T02:58:08.118Z,0
2016-03-13T02:58:56.042Z,0
2016-03-13T02:59:55.451Z,0
2016-03-13T03:00:55.407Z,0
2016-03-13T03:01:55.660Z,0
2016-03-13T03:02:55.412Z,0
2016-03-13T03:03:55.431Z,0
2016-03-13T03:04:55.434Z,0
2016-03-13T03:06:08.202Z,0
2016-03-13T03:06:56.080Z,0
2016-03-13T03:08:14.694Z,0
2016-03-13T03:08:56.100Z,0
2016-03-13T03:11:10.671Z,0
2016-03-13T03:12:29.908Z,0
2016-03-13T03:13:11.316Z,0
2016-03-13T03:15:02.069Z,0
2016-03-13T03:15:27.416Z,0
2016-03-13T03:16:27.418Z,0
2016-03-13T03:17:27.421Z,0
2016-03-13T03:18:27.439Z,0
2016-03-13T03:19:46.645Z,0
2016-03-13T03:20:40.210Z,0
2016-03-13T03:21:27.573Z,0
2016-03-13T03:22:27.669Z,0
2016-03-13T03:23:40.343Z,0
2016-03-13T03:24:28.096Z,0
2016-03-13T03:25:53.239Z,0
2016-03-13T03:26:37.148Z,0
2016-03-13T03:27:49.964Z,0
2016-03-13T03:28:50.185Z,0
2016-03-13T03:29:37.267Z,0
2016-03-13T03:30:37.237Z,0
2016-03-13T03:31:37.756Z,0
2016-03-13T03:32:38.681Z,0
2016-03-13T03:33:38.699Z,0
2016-03-13T03:34:37.295Z,0
2016-03-13T03:35:50.048Z,0
2016-03-13T03:36:37.738Z,0
2016-03-13T03:37:37.366Z,0
2016-03-13T03:38:37.509Z,0
2016-03-13T03:39:37.356Z,0
2016-03-13T03:40:50.171Z,0
2016-03-13T03:41:37.361Z,0
2016-03-13T03:42:37.473Z,0
2016-03-13T03:43:37.413Z,0
2016-03-13T03:44:37.666Z,0
2016-03-13T03:45:37.246Z,0
2016-03-13T03:46:50.374Z,0
2016-03-13T03:47:44.315Z,0
2016-03-13T03:49:47.007Z,0
2016-03-13T03:50:47.104Z,0
2016-03-13T03:51:59.778Z,0
2016-03-13T03:52:53.312Z,0
2016-03-13T03:54:06.111Z,0
2016-03-13T03:54:47.114Z,0
2016-03-13T03:56:06.304Z,0
2016-03-13T03:56:47.104Z,0
2016-03-13T03:57:47.169Z,0
2016-03-13T03:58:47.141Z,0
2016-03-13T03:59:47.253Z,0
2016-03-13T04:00:47.161Z,0
2016-03-13T04:01:47.508Z,0
2016-03-13T04:02:47.198Z,0
2016-03-13T04:03:47.295Z,0
2016-03-13T04:04:47.236Z,0
2016-03-13T04:05:47.253Z,0
2016-03-13T04:06:53.538Z,0
2016-03-13T04:07:47.259Z,0
2016-03-13T04:08:47.277Z,0
2016-03-13T04:09:54.952Z,0
2016-03-13T04:10:47.299Z,0
2016-03-13T04:12:12.975Z,0
2016-03-13T04:12:47.335Z,0
2016-03-13T04:13:47.322Z,0
2016-03-13T04:14:47.512Z,0
2016-03-13T04:15:47.405Z,0
2016-03-13T04:17:00.377Z,0
2016-03-13T04:17:47.395Z,0
2016-03-13T04:18:47.538Z,0
2016-03-13T04:20:00.166Z,0
2016-03-13T04:20:48.137Z,0
2016-03-13T04:22:06.656Z,0
2016-03-13T04:22:47.471Z,0
2016-03-13T04:24:13.289Z,0
2016-03-13T04:24:57.179Z,0
2016-03-13T04:25:56.995Z,0
2016-03-13T04:26:57.372Z,0
2016-03-13T04:27:57.204Z,0
2016-03-13T04:29:03.706Z,0
2016-03-13T04:29:58.678Z,0
2016-03-13T04:30:57.243Z,0
2016-03-13T04:31:57.245Z,0
2016-03-13T04:32:57.279Z,0
2016-03-13T04:33:57.282Z,0
2016-03-13T04:34:57.473Z,0
2016-03-13T04:35:57.459Z,0
2016-03-13T04:36:57.290Z,0
2016-03-13T04:37:57.372Z,0
2016-03-13T04:39:10.080Z,0
2016-03-13T04:40:03.642Z,0
2016-03-13T04:41:16.585Z,0
2016-03-13T04:41:57.647Z,0
2016-03-13T04:42:58.885Z,0
2016-03-13T04:43:58.808Z,0
2016-03-13T04:45:00.468Z,0
2016-03-13T04:45:58.846Z,0
2016-03-13T04:46:57.738Z,0
2016-03-13T04:47:57.444Z,0
2016-03-13T04:49:10.231Z,0
2016-03-13T04:49:57.512Z,0
2016-03-13T04:50:57.531Z,0
2016-03-13T04:51:57.517Z,0
2016-03-13T04:53:03.832Z,0
2016-03-13T04:53:58.335Z,0
2016-03-13T04:54:57.557Z,0
2016-03-13T04:55:57.559Z,0
2016-03-13T04:56:57.578Z,0
2016-03-13T04:57:58.206Z,0
2016-03-13T04:58:57.598Z,0
2016-03-13T04:59:58.226Z,0
2016-03-13T05:00:57.683Z,0
2016-03-13T05:02:10.454Z,0
2016-03-13T05:02:57.642Z,0
2016-03-13T05:04:23.350Z,0
2016-03-13T05:05:07.240Z,0
2016-03-13T05:06:26.433Z,0
2016-03-13T05:07:07.449Z,0
2016-03-13T05:08:32.923Z,0
2016-03-13T05:09:07.267Z,0
2016-03-13T05:10:07.425Z,0
2016-03-13T05:11:07.335Z,4
2016-03-13T05:12:07.338Z,0
2016-03-13T05:13:07.293Z,4
2016-03-13T05:14:13.611Z,4
2016-03-13T05:15:07.330Z,4
2016-03-13T05:16:08.769Z,4
2016-03-13T05:17:07.382Z,4
2016-03-13T05:18:26.590Z,4
2016-03-13T05:19:13.905Z,8
2016-03-13T05:21:22.629Z,8
2016-03-13T05:22:22.632Z,12
2016-03-13T05:23:22.651Z,16
2016-03-13T05:24:28.950Z,16
2016-03-13T05:25:35.421Z,16
2016-03-13T05:26:22.814Z,20
2016-03-13T05:27:48.645Z,24
2016-03-13T05:28:23.289Z,28
2016-03-13T05:29:54.041Z,40
2016-03-13T05:30:48.403Z,48
2016-03-13T05:31:23.359Z,52
2016-03-13T05:32:35.550Z,60
2016-03-13T05:33:22.786Z,68
2016-03-13T05:34:22.820Z,76
2016-03-13T05:35:23.417Z,84
2016-03-13T05:36:35.561Z,100
2016-03-13T05:37:35.767Z,116
2016-03-13T05:39:19.834Z,148
2016-03-13T05:40:22.947Z,168
2016-03-13T05:40:54.759Z,176
2016-03-13T05:41:35.714Z,188
2016-03-13T05:43:01.202Z,208
2016-03-13T05:43:35.627Z,224
2016-03-13T05:44:35.566Z,244
2016-03-13T05:45:35.647Z,268
2016-03-13T05:46:37.047Z,300
2016-03-13T05:47:35.560Z,324
2016-03-13T05:48:36.353Z,348
2016-03-13T05:49:35.896Z,368
2016-03-13T05:50:36.242Z,396
2016-03-13T05:51:48.386Z,432
2016-03-13T05:52:36.310Z,464
2016-03-13T05:55:10.897Z,576
2016-03-13T05:56:11.118Z,616
2016-03-13T05:56:49.462Z,644
2016-03-13T05:58:46.347Z,716
2016-03-13T05:58:58.941Z,724
2016-03-13T05:59:59.006Z,756
2016-03-13T06:00:59.087Z,796
2016-03-13T06:01:58.965Z,832
2016-03-13T06:03:11.876Z,876
2016-03-13T06:03:59.032Z,908
2016-03-13T06:04:59.895Z,940
2016-03-13T06:05:59.006Z,976
2016-03-13T06:07:11.806Z,1008
2016-03-13T06:07:59.275Z,1020
2016-03-13T06:09:18.593Z,1048
2016-03-13T06:09:59.062Z,1048
2016-03-13T06:11:24.942Z,1052
2016-03-13T06:12:08.848Z,1040
2016-03-13T06:13:08.851Z,1016
2016-03-13T06:14:08.901Z,972
2016-03-13T06:15:34.562Z,960
2016-03-13T06:16:08.875Z,968
2016-03-13T06:17:09.081Z,984
2016-03-13T06:18:08.989Z,1004
2016-03-13T06:19:08.914Z,1008
2016-03-13T06:20:08.995Z,1016
2016-03-13T06:21:08.950Z,1032
2016-03-13T06:22:08.969Z,1048
2016-03-13T06:23:08.971Z,1044
2016-03-13T06:24:21.743Z,1016
2016-03-13T06:25:08.868Z,1008
2016-03-13T06:26:09.057Z,1020
2016-03-13T06:27:09.029Z,1032
2016-03-13T06:28:09.219Z,1052
2016-03-13T06:29:09.049Z,1084
2016-03-13T06:30:09.068Z,1116
2016-03-13T06:31:09.087Z,1148
2016-03-13T06:32:09.292Z,1232
2016-03-13T06:33:09.295Z,1308
2016-03-13T06:34:09.126Z,1372
2016-03-13T06:35:09.144Z,1420
2016-03-13T06:36:15.540Z,1444
2016-03-13T06:37:09.212Z,1464
2016-03-13T06:38:09.167Z,1476
2016-03-13T06:39:09.155Z,1492
2016-03-13T06:40:09.204Z,1488
2016-03-13T06:41:09.816Z,1468
2016-03-13T06:42:09.242Z,1424
2016-03-13T06:43:09.275Z,1452
2016-03-13T06:44:09.294Z,1512
2016-03-13T06:45:12.486Z,1536
2016-03-13T06:46:09.283Z,1576
2016-03-13T06:47:09.286Z,1564
2016-03-13T06:48:09.289Z,1564
2016-03-13T06:49:09.307Z,1616
2016-03-13T06:50:09.513Z,1700
2016-03-13T06:51:09.327Z,1768
2016-03-13T06:52:09.565Z,1804
2016-03-13T06:53:09.380Z,1804
2016-03-13T06:54:09.602Z,1800
2016-03-13T06:55:15.669Z,1820
2016-03-13T06:56:09.638Z,1876
2016-03-13T06:57:27.377Z,1976
2016-03-13T06:58:09.502Z,2024
2016-03-13T06:59:09.490Z,2064
2016-03-13T07:00:09.493Z,2172
2016-03-13T07:01:09.480Z,2276
2016-03-13T07:02:10.641Z,2352
2016-03-13T07:03:09.751Z,2420
2016-03-13T07:04:09.551Z,2512
2016-03-13T07:05:09.741Z,2572
2016-03-13T07:06:09.587Z,2668
2016-03-13T07:07:09.559Z,2744
2016-03-13T07:08:09.577Z,2788
2016-03-13T07:09:09.595Z,2872
2016-03-13T07:10:09.582Z,2944
2016-03-13T07:11:09.631Z,3076
2016-03-13T07:12:09.587Z,3196
2016-03-13T07:13:09.653Z,3348
2016-03-13T07:14:09.640Z,3500
2016-03-13T07:15:09.658Z,3480
2016-03-13T07:16:09.630Z,3360
2016-03-13T07:17:09.695Z,3288
2016-03-13T07:18:09.728Z,3452
2016-03-13T07:19:09.559Z,3724
2016-03-13T07:20:22.471Z,3968
2016-03-13T07:21:16.005Z,4160
2016-03-13T07:22:35.398Z,4348
2016-03-13T07:23:44.994Z,4380
2016-03-13T07:24:19.279Z,4404
2016-03-13T07:25:19.312Z,4416
2016-03-13T07:26:19.363Z,4252
2016-03-13T07:27:19.333Z,4164
2016-03-13T07:28:19.352Z,4128
2016-03-13T07:29:19.371Z,4176
2016-03-13T07:30:19.388Z,4376
2016-03-13T07:31:19.407Z,4388
2016-03-13T07:32:19.488Z,4432
2016-03-13T07:33:19.429Z,4592
2016-03-13T07:34:19.462Z,4864
2016-03-13T07:35:19.434Z,4976
2016-03-13T07:36:19.467Z,5060
2016-03-13T07:37:19.454Z,5264
2016-03-13T07:38:19.535Z,5352
2016-03-13T07:39:19.522Z,5400
2016-03-13T07:40:19.525Z,5640
2016-03-13T07:41:25.809Z,5984
2016-03-13T07:42:19.530Z,5924
2016-03-13T07:43:19.673Z,5796
2016-03-13T07:44:19.628Z,6124
2016-03-13T07:45:19.725Z,6280
2016-03-13T07:46:19.603Z,6272
2016-03-13T07:47:19.840Z,6628
2016-03-13T07:48:19.639Z,6388
2016-03-13T07:49:19.689Z,6452
2016-03-13T07:50:32.380Z,7004
2016-03-13T07:51:25.945Z,6920
2016-03-13T07:52:38.901Z,6624
2016-03-13T07:53:32.638Z,6520
2016-03-13T07:54:45.422Z,6784
2016-03-13T07:55:19.769Z,6740
2016-03-13T07:56:20.068Z,6236
2016-03-13T07:57:19.758Z,6224
2016-03-13T07:58:19.885Z,6464
2016-03-13T07:59:32.544Z,6768
2016-03-13T08:00:19.860Z,6952
2016-03-13T08:01:39.065Z,7336
2016-03-13T08:02:19.818Z,6664
2016-03-13T08:03:19.868Z,6464
2016-03-13T08:04:20.137Z,6156
2016-03-13T08:05:21.358Z,6272
2016-03-13T08:06:19.923Z,6664
2016-03-13T08:07:19.910Z,6504
2016-03-13T08:08:19.943Z,6148
2016-03-13T08:09:19.962Z,6048
2016-03-13T08:10:19.949Z,6020
2016-03-13T08:11:19.967Z,5928
2016-03-13T08:12:32.720Z,6044
2016-03-13T08:13:20.020Z,6220
2016-03-13T08:14:32.757Z,6512
2016-03-13T08:15:20.166Z,7028
2016-03-13T08:16:20.262Z,7520
2016-03-13T08:17:20.047Z,7272
2016-03-13T08:18:20.127Z,7132
2016-03-13T08:19:20.083Z,7372
2016-03-13T08:20:20.101Z,7508
2016-03-13T08:21:32.853Z,7916
2016-03-13T08:22:26.388Z,8080
2016-03-13T08:23:20.171Z,8532
2016-03-13T08:24:20.533Z,8184
2016-03-13T08:25:20.224Z,8244
2016-03-13T08:26:20.195Z,8456
2016-03-13T08:27:20.214Z,8040
2016-03-13T08:28:20.341Z,8472
2016-03-13T08:29:20.063Z,8912
2016-03-13T08:30:20.878Z,9560
2016-03-13T08:31:20.302Z,10032
2016-03-13T08:32:20.415Z,9216
2016-03-13T08:33:20.307Z,9888
2016-03-13T08:34:20.279Z,9912
2016-03-13T08:35:20.297Z,9660
2016-03-13T08:36:20.537Z,9260
2016-03-13T08:37:20.322Z,9116
2016-03-13T08:38:20.358Z,9152
2016-03-13T08:39:20.315Z,8964
2016-03-13T08:40:20.960Z,8904
2016-03-13T08:41:20.521Z,8444
2016-03-13T08:42:20.519Z,8540
2016-03-13T08:43:20.500Z,8652
2016-03-13T08:44:33.076Z,8660
2016-03-13T08:45:20.626Z,8336
2016-03-13T08:46:46.065Z,8684
2016-03-13T08:47:33.144Z,8532
2016-03-13T08:48:20.566Z,9100
2016-03-13T08:49:39.785Z,9520
2016-03-13T08:50:20.661Z,9936
2016-03-13T08:52:25.102Z,9896
2016-03-13T08:53:25.136Z,10440
2016-03-13T08:54:26.622Z,10452
2016-03-13T08:55:31.467Z,10512
2016-03-13T08:56:37.891Z,11592
2016-03-13T08:57:44.518Z,10788
2016-03-13T08:58:25.193Z,10728
2016-03-13T08:59:50.696Z,10188
2016-03-13T09:00:38.104Z,10572
2016-03-13T09:01:56.716Z,11412
2016-03-13T09:02:28.516Z,11416
2016-03-13T09:04:50.740Z,11508
2016-03-13T09:05:25.290Z,11116
2016-03-13T09:06:25.402Z,11440
2016-03-13T09:07:25.943Z,11304
2016-03-13T09:08:25.320Z,10260
2016-03-13T09:09:38.088Z,10844
2016-03-13T09:10:38.107Z,11828
2016-03-13T09:11:25.390Z,11776
2016-03-13T09:12:44.706Z,11692
2016-03-13T09:13:25.427Z,11184
2016-03-13T09:14:51.133Z,11592
2016-03-13T09:15:38.307Z,11132
2016-03-13T09:16:56.795Z,10696
2016-03-13T09:17:44.704Z,11072
2016-03-13T09:18:25.487Z,11028
2016-03-13T09:20:28.227Z,11028
2016-03-13T09:20:40.883Z,11060
2016-03-13T09:21:40.824Z,11388
2016-03-13T09:22:40.905Z,11572
2016-03-13T09:23:40.876Z,11604
2016-03-13T09:24:40.894Z,11528
2016-03-13T09:25:40.928Z,11924
2016-03-13T09:26:47.274Z,12284
2016-03-13T09:27:41.293Z,12036
2016-03-13T09:28:40.842Z,11328
2016-03-13T09:29:41.080Z,11420
2016-03-13T09:30:41.005Z,12596
2016-03-13T09:31:41.132Z,13108
2016-03-13T09:32:41.057Z,13588
2016-03-13T09:33:42.513Z,13468
2016-03-13T09:34:41.062Z,13620
2016-03-13T09:35:41.096Z,13640
2016-03-13T09:36:41.177Z,13356
2016-03-13T09:37:41.163Z,13988
2016-03-13T09:38:41.151Z,13780
2016-03-13T09:39:41.122Z,13028
2016-03-13T09:40:41.297Z,12804
2016-03-13T09:41:41.862Z,13064
2016-03-13T09:42:41.255Z,12688
2016-03-13T09:43:41.055Z,12252
2016-03-13T09:44:41.229Z,10792
2016-03-13T09:45:47.482Z,10332
2016-03-13T09:46:41.329Z,10748
2016-03-13T09:47:41.269Z,11204
2016-03-13T09:48:41.881Z,11324
2016-03-13T09:49:41.337Z,12328
2016-03-13T09:50:41.417Z,11536
2016-03-13T09:51:42.123Z,10768
2016-03-13T09:52:54.094Z,11360
2016-03-13T09:53:54.176Z,11244
2016-03-13T09:54:41.381Z,11492
2016-03-13T09:56:00.775Z,12796
2016-03-13T09:56:41.434Z,12472
2016-03-13T09:57:41.467Z,12188
2016-03-13T09:58:42.111Z,12808
2016-03-13T09:59:54.239Z,13348
2016-03-13T10:00:43.007Z,13088
2016-03-13T10:02:07.197Z,13060
2016-03-13T10:02:41.543Z,12824
2016-03-13T10:03:41.561Z,12816
2016-03-13T10:04:41.580Z,13236
2016-03-13T10:05:41.599Z,13956
2016-03-13T10:06:41.633Z,14256
2016-03-13T10:07:48.010Z,13548
2016-03-13T10:08:41.841Z,13012
2016-03-13T10:10:00.874Z,13356
2016-03-13T10:10:41.705Z,13732
2016-03-13T10:11:41.724Z,13588
2016-03-13T10:12:41.805Z,13220
2016-03-13T10:13:41.792Z,13344
2016-03-13T10:14:41.779Z,13664
2016-03-13T10:15:41.798Z,13784
2016-03-13T10:16:41.815Z,14316
2016-03-13T10:17:42.334Z,14328
2016-03-13T10:18:54.570Z,14164
2016-03-13T10:19:49.558Z,14188
2016-03-13T10:21:01.092Z,13956
2016-03-13T10:21:45.344Z,13732
2016-03-13T10:22:45.034Z,13532
2016-03-13T10:23:57.740Z,13444
2016-03-13T10:24:45.056Z,13372
2016-03-13T10:26:04.106Z,13952
2016-03-13T10:26:45.108Z,14284
2016-03-13T10:28:05.689Z,14148
2016-03-13T10:28:46.597Z,13944
2016-03-13T10:29:45.163Z,13432
2016-03-13T10:30:45.244Z,13388
2016-03-13T10:31:50.980Z,13008
2016-03-13T10:32:45.171Z,12164
2016-03-13T10:33:45.314Z,12036
2016-03-13T10:34:45.286Z,12840
2016-03-13T10:35:47.257Z,12728
2016-03-13T10:36:45.307Z,13020
2016-03-13T10:37:45.559Z,14436
2016-03-13T10:38:45.327Z,14644
2016-03-13T10:39:45.487Z,13040
2016-03-13T10:40:45.568Z,11628
2016-03-13T10:41:45.711Z,11888
2016-03-13T10:42:45.479Z,13140
2016-03-13T10:43:45.669Z,13792
2016-03-13T10:44:58.235Z,15552
2016-03-13T10:45:45.487Z,16576
2016-03-13T10:46:45.537Z,16704
2016-03-13T10:47:45.696Z,15552
2016-03-13T10:48:45.573Z,15776
2016-03-13T10:49:45.529Z,14100
2016-03-13T10:50:46.172Z,12684
2016-03-13T10:51:45.534Z,12548
2016-03-13T10:52:45.568Z,12268
2016-03-13T10:53:58.446Z,11772
2016-03-13T10:54:45.574Z,12240
2016-03-13T10:55:45.655Z,12212
2016-03-13T10:56:58.533Z,13436
2016-03-13T10:58:42.804Z,14776
2016-03-13T10:59:02.226Z,14920
2016-03-13T10:59:55.681Z,15584
2016-03-13T11:00:57.308Z,16256
2016-03-13T11:02:01.842Z,14752
2016-03-13T11:02:56.549Z,13200
2016-03-13T11:04:02.317Z,12168
2016-03-13T11:04:55.850Z,12968
2016-03-13T11:06:15.041Z,15064
2016-03-13T11:06:56.481Z,14960
2016-03-13T11:08:52.815Z,14744
2016-03-13T11:10:40.945Z,11544
2016-03-13T11:11:15.288Z,11164
2016-03-13T11:12:46.779Z,10256
2016-03-13T11:13:15.529Z,10144
2016-03-13T11:14:15.265Z,10416
2016-03-13T11:15:15.299Z,11212
2016-03-13T11:16:15.536Z,11440
2016-03-13T11:17:15.742Z,11308
2016-03-13T11:18:15.542Z,11084
2016-03-13T11:19:15.732Z,11300
2016-03-13T11:20:16.798Z,10868
2016-03-13T11:21:15.457Z,10052
2016-03-13T11:22:15.537Z,8564
2016-03-13T11:23:15.571Z,7740
2016-03-13T11:24:15.745Z,7272
2016-03-13T11:25:15.561Z,6844
2016-03-13T11:26:15.486Z,6880
2016-03-13T11:27:15.534Z,7404
2016-03-13T11:28:15.584Z,8684
2016-03-13T11:29:15.806Z,10636
2016-03-13T11:30:15.808Z,12256
2016-03-13T11:31:15.764Z,11332
2016-03-13T11:32:15.814Z,10008
2016-03-13T11:33:15.786Z,10172
2016-03-13T11:34:15.992Z,9852
2016-03-13T11:35:15.775Z,9084
2016-03-13T11:36:16.169Z,9756
2016-03-13T11:37:15.828Z,11476
2016-03-13T11:38:16.050Z,12784
2016-03-13T11:39:15.989Z,14384
2016-03-13T11:40:15.805Z,13856
2016-03-13T11:41:15.980Z,13208
2016-03-13T11:42:30.110Z,12624
2016-03-13T11:43:15.985Z,11688
2016-03-13T11:44:41.537Z,9436
2016-03-13T11:45:16.146Z,8452
2016-03-13T11:46:15.852Z,7628
2016-03-13T11:47:15.963Z,8188
2016-03-13T11:48:16.123Z,9792
2016-03-13T11:49:15.923Z,11056
2016-03-13T11:50:15.940Z,10744
2016-03-13T11:51:29.040Z,10896
2016-03-13T11:52:15.993Z,11664
2016-03-13T11:53:16.012Z,12508
2016-03-13T11:54:16.045Z,12892
2016-03-13T11:55:16.048Z,12884
2016-03-13T11:56:16.254Z,11500
2016-03-13T11:57:16.053Z,10968
2016-03-13T11:58:16.447Z,10644
2016-03-13T11:59:16.153Z,8900
2016-03-13T12:00:16.217Z,8984
2016-03-13T12:01:16.440Z,10936
2016-03-13T12:02:16.240Z,12876
2016-03-13T12:03:16.257Z,13672
2016-03-13T12:04:16.526Z,13292
2016-03-13T12:05:16.295Z,12012
2016-03-13T12:06:16.687Z,9808
2016-03-13T12:07:16.612Z,8744
2016-03-13T12:08:16.552Z,8992
2016-03-13T12:09:16.586Z,9084
2016-03-13T12:10:16.307Z,8804
2016-03-13T12:11:16.747Z,8824
2016-03-13T12:12:16.594Z,10408
2016-03-13T12:13:16.691Z,13032
2016-03-13T12:14:16.694Z,12936
2016-03-13T12:15:16.586Z,11272
2016-03-13T12:16:16.277Z,10736
2016-03-13T12:17:16.576Z,10992
2016-03-13T12:18:17.126Z,9684
2016-03-13T12:19:16.582Z,9820
2016-03-13T12:20:17.116Z,11004
2016-03-13T12:21:17.009Z,11892
2016-03-13T12:22:16.824Z,12096
2016-03-13T12:23:16.671Z,11968
2016-03-13T12:24:16.814Z,10312
2016-03-13T12:25:16.598Z,8856
2016-03-13T12:26:16.851Z,8092
2016-03-13T12:27:16.665Z,8676
2016-03-13T12:28:17.090Z,8620
2016-03-13T12:29:16.812Z,7796
2016-03-13T12:30:16.642Z,7408
2016-03-13T12:31:17.537Z,7148
2016-03-13T12:32:16.976Z,7652
2016-03-13T12:33:17.104Z,9332
2016-03-13T12:34:17.232Z,10244
2016-03-13T12:35:17.406Z,9444
2016-03-13T12:36:16.846Z,8912
2016-03-13T12:37:16.958Z,9032
2016-03-13T12:38:17.351Z,8952
2016-03-13T12:39:16.979Z,9180
2016-03-13T12:40:16.950Z,9220
2016-03-13T12:41:17.531Z,8616
2016-03-13T12:42:16.909Z,8060
2016-03-13T12:43:17.444Z,8240
2016-03-13T12:44:17.133Z,9304
2016-03-13T12:45:17.011Z,9908
2016-03-13T12:46:16.967Z,10104
2016-03-13T12:47:17.844Z,10864
2016-03-13T12:48:17.035Z,9160
2016-03-13T12:49:17.068Z,9484
2016-03-13T12:50:17.494Z,10004
2016-03-13T12:51:17.277Z,8952
2016-03-13T12:52:17.138Z,8048
2016-03-13T12:53:17.596Z,7668
2016-03-13T12:54:17.535Z,7352
2016-03-13T12:55:17.413Z,8560
2016-03-13T12:56:17.369Z,12104
2016-03-13T12:57:17.184Z,14452
2016-03-13T12:58:17.390Z,13968
2016-03-13T12:59:17.157Z,12448
2016-03-13T13:00:17.473Z,11444
2016-03-13T13:01:17.695Z,11928
2016-03-13T13:02:17.370Z,10796
2016-03-13T13:03:17.263Z,10356
2016-03-13T13:04:17.500Z,10008
2016-03-13T13:05:17.393Z,9924
2016-03-13T13:06:18.614Z,9788
2016-03-13T13:07:17.601Z,9504
2016-03-13T13:08:17.636Z,9364
2016-03-13T13:09:17.579Z,8688
2016-03-13T13:10:18.285Z,8960
2016-03-13T13:11:17.397Z,8616
2016-03-13T13:12:17.854Z,7776
2016-03-13T13:13:17.434Z,7552
2016-03-13T13:14:17.374Z,8156
2016-03-13T13:15:17.518Z,8592
2016-03-13T13:16:17.660Z,8268
2016-03-13T13:17:20.132Z,7728
2016-03-13T13:18:17.665Z,7376
2016-03-13T13:19:17.810Z,6952
2016-03-13T13:20:17.859Z,7480
2016-03-13T13:21:17.580Z,9196
2016-03-13T13:22:17.630Z,8852
2016-03-13T13:23:17.945Z,8756
2016-03-13T13:24:17.651Z,8524
2016-03-13T13:25:18.342Z,7248
2016-03-13T13:26:17.750Z,6392
2016-03-13T13:27:17.628Z,5884
2016-03-13T18:19:21.297Z,36
2016-03-13T18:20:21.316Z,36
2016-03-13T18:21:21.787Z,36
2016-03-13T18:22:21.618Z,36
2016-03-13T18:23:34.231Z,36
2016-03-13T18:24:21.389Z,0
2016-03-13T18:25:21.422Z,0
2016-03-13T18:26:21.488Z,0
2016-03-13T18:27:21.475Z,0
2016-03-13T18:28:21.603Z,0
2016-03-13T18:29:34.137Z,0
2016-03-13T18:30:21.421Z,0
2016-03-13T18:31:21.486Z,0
2016-03-13T18:32:21.457Z,0
2016-03-13T18:33:21.522Z,0
2016-03-13T18:34:21.587Z,0
2016-03-13T18:35:21.747Z,0
2016-03-13T18:36:21.546Z,0
2016-03-13T18:37:21.736Z,0
2016-03-13T18:38:21.833Z,0
2016-03-13T18:39:21.679Z,0
2016-03-13T18:40:21.619Z,0
2016-03-13T18:41:21.638Z,0
2016-03-13T18:42:21.796Z,0
2016-03-13T18:43:21.659Z,0
2016-03-13T18:44:21.676Z,0
2016-03-13T18:45:21.774Z,0
2016-03-13T18:46:21.667Z,0
2016-03-13T18:47:34.467Z,0
2016-03-13T18:48:34.407Z,0
2016-03-13T18:49:21.987Z,0
2016-03-13T18:50:34.428Z,0
2016-03-13T18:51:21.931Z,0
2016-03-13T18:52:22.026Z,0
2016-03-13T18:53:22.264Z,0
2016-03-13T18:54:21.798Z,0